Durbin, West Virginia
Current Conditions -  °F | °C
As of 7:51 AM on Friday 24 Oct 2014 (Local Time) from KEKN Reporting Station
Haze Haze  
Wind Chill: 44°   Ceiling: 2300
Heat Index: 44°   Visibility: 5mi
Dew Point: 44°   Wind: 0mph
Humidity: 100%   Direction: NA
Pressure: 30.11"   Gusts: NA
Location:  38.55°N, 79.83°W
Report Text: KEKN 241151Z AUTO 00000KT 5SM BR BKN023 07/07 A3011 RMK AO2 SLP207 70001 T00670067 10078 20067 50004 TSNO
Loading
Personal Weather Stations






























Interactive Weather Map
Tropical Storm Tracking
New forecast layout! Learn more

10-Day Weather Forecast

Advertisements
Track Severe Weather on mobile